sensor_id;sensor_type;location;lat;lon;timestamp;temperature;humidity
27858;DHT22;16852;51.446;6.528;2023-06-04T00:01:57;15.60;79.60
27858;DHT22;16852;51.446;6.528;2023-06-04T00:03:58;15.60;80.50
27858;DHT22;16852;51.446;6.528;2023-06-04T00:05:58;15.60;80.60
27858;DHT22;16852;51.446;6.528;2023-06-04T00:07:59;15.60;80.50
27858;DHT22;16852;51.446;6.528;2023-06-04T00:10:00;15.70;80.70
27858;DHT22;16852;51.446;6.528;2023-06-04T00:12:02;15.70;81.40
27858;DHT22;16852;51.446;6.528;2023-06-04T00:14:03;15.80;81.60
27858;DHT22;16852;51.446;6.528;2023-06-04T00:16:04;15.80;82.90
27858;DHT22;16852;51.446;6.528;2023-06-04T00:18:05;15.80;83.20
27858;DHT22;16852;51.446;6.528;2023-06-04T00:20:06;15.80;81.40
27858;DHT22;16852;51.446;6.528;2023-06-04T00:22:07;15.80;83.20
27858;DHT22;16852;51.446;6.528;2023-06-04T00:24:08;15.90;82.00
27858;DHT22;16852;51.446;6.528;2023-06-04T00:26:09;15.90;81.90
27858;DHT22;16852;51.446;6.528;2023-06-04T00:28:09;15.90;81.60
27858;DHT22;16852;51.446;6.528;2023-06-04T00:30:10;15.90;82.20
27858;DHT22;16852;51.446;6.528;2023-06-04T00:32:11;15.90;82.10
27858;DHT22;16852;51.446;6.528;2023-06-04T00:34:12;15.90;83.90
27858;DHT22;16852;51.446;6.528;2023-06-04T00:36:13;15.90;84.30
27858;DHT22;16852;51.446;6.528;2023-06-04T00:38:14;15.90;83.70
27858;DHT22;16852;51.446;6.528;2023-06-04T00:40:14;15.90;85.80
27858;DHT22;16852;51.446;6.528;2023-06-04T00:42:16;15.90;85.70
27858;DHT22;16852;51.446;6.528;2023-06-04T00:44:16;15.90;84.50
27858;DHT22;16852;51.446;6.528;2023-06-04T00:46:20;15.80;84.80
27858;DHT22;16852;51.446;6.528;2023-06-04T00:48:21;15.80;85.00
27858;DHT22;16852;51.446;6.528;2023-06-04T00:50:22;15.80;83.80
27858;DHT22;16852;51.446;6.528;2023-06-04T00:52:23;15.80;83.80
27858;DHT22;16852;51.446;6.528;2023-06-04T00:54:25;15.80;83.80
27858;DHT22;16852;51.446;6.528;2023-06-04T00:56:26;15.80;84.00
27858;DHT22;16852;51.446;6.528;2023-06-04T00:58:26;15.80;86.90
27858;DHT22;16852;51.446;6.528;2023-06-04T01:02:38;15.70;86.10
27858;DHT22;16852;51.446;6.528;2023-06-04T01:04:58;15.70;86.40
27858;DHT22;16852;51.446;6.528;2023-06-04T01:07:04;15.70;87.70
27858;DHT22;16852;51.446;6.528;2023-06-04T01:09:05;15.70;86.90
27858;DHT22;16852;51.446;6.528;2023-06-04T01:11:06;15.70;87.10
27858;DHT22;16852;51.446;6.528;2023-06-04T01:13:09;15.70;86.70
27858;DHT22;16852;51.446;6.528;2023-06-04T01:15:10;15.70;88.00
27858;DHT22;16852;51.446;6.528;2023-06-04T01:17:22;15.70;87.10
27858;DHT22;16852;51.446;6.528;2023-06-04T01:21:42;15.60;87.50
27858;DHT22;16852;51.446;6.528;2023-06-04T01:23:51;15.60;88.60
27858;DHT22;16852;51.446;6.528;2023-06-04T01:25:58;15.60;87.70
27858;DHT22;16852;51.446;6.528;2023-06-04T01:28:03;15.60;87.20
27858;DHT22;16852;51.446;6.528;2023-06-04T01:30:06;15.60;88.30
27858;DHT22;16852;51.446;6.528;2023-06-04T01:32:07;15.60;87.70
27858;DHT22;16852;51.446;6.528;2023-06-04T01:34:08;15.60;88.40
27858;DHT22;16852;51.446;6.528;2023-06-04T01:36:08;15.50;88.10
27858;DHT22;16852;51.446;6.528;2023-06-04T01:38:11;15.60;88.70
27858;DHT22;16852;51.446;6.528;2023-06-04T01:40:12;15.50;88.80
27858;DHT22;16852;51.446;6.528;2023-06-04T01:42:12;15.50;89.00
27858;DHT22;16852;51.446;6.528;2023-06-04T01:44:13;15.50;88.70
27858;DHT22;16852;51.446;6.528;2023-06-04T01:46:14;15.50;88.80
27858;DHT22;16852;51.446;6.528;2023-06-04T01:48:14;15.50;89.30
27858;DHT22;16852;51.446;6.528;2023-06-04T01:50:15;15.50;90.30
27858;DHT22;16852;51.446;6.528;2023-06-04T01:52:17;15.50;90.40
27858;DHT22;16852;51.446;6.528;2023-06-04T01:54:17;15.40;90.00
27858;DHT22;16852;51.446;6.528;2023-06-04T01:56:18;15.40;90.40
27858;DHT22;16852;51.446;6.528;2023-06-04T01:58:21;15.40;91.20
27858;DHT22;16852;51.446;6.528;2023-06-04T02:00:23;15.40;90.80
27858;DHT22;16852;51.446;6.528;2023-06-04T02:02:24;15.30;90.60
27858;DHT22;16852;51.446;6.528;2023-06-04T02:04:25;15.30;91.00
27858;DHT22;16852;51.446;6.528;2023-06-04T02:06:26;15.30;92.00
27858;DHT22;16852;51.446;6.528;2023-06-04T02:08:30;15.30;92.00
27858;DHT22;16852;51.446;6.528;2023-06-04T02:10:30;15.20;91.70
27858;DHT22;16852;51.446;6.528;2023-06-04T02:12:31;15.20;91.70
27858;DHT22;16852;51.446;6.528;2023-06-04T02:14:31;15.20;93.50
27858;DHT22;16852;51.446;6.528;2023-06-04T02:16:32;15.10;92.30
27858;DHT22;16852;51.446;6.528;2023-06-04T02:18:33;15.10;92.60
27858;DHT22;16852;51.446;6.528;2023-06-04T02:20:34;15.10;92.30
27858;DHT22;16852;51.446;6.528;2023-06-04T02:22:34;15.10;92.40
27858;DHT22;16852;51.446;6.528;2023-06-04T02:24:35;15.00;92.00
27858;DHT22;16852;51.446;6.528;2023-06-04T02:26:35;15.00;93.00
27858;DHT22;16852;51.446;6.528;2023-06-04T02:28:36;15.00;92.40
27858;DHT22;16852;51.446;6.528;2023-06-04T02:30:37;15.00;92.60
27858;DHT22;16852;51.446;6.528;2023-06-04T02:32:37;15.00;93.00
27858;DHT22;16852;51.446;6.528;2023-06-04T02:34:39;14.90;92.70
27858;DHT22;16852;51.446;6.528;2023-06-04T02:36:40;14.90;93.40
27858;DHT22;16852;51.446;6.528;2023-06-04T02:38:40;14.90;93.50
27858;DHT22;16852;51.446;6.528;2023-06-04T02:40:42;14.90;93.80
27858;DHT22;16852;51.446;6.528;2023-06-04T02:42:43;14.80;92.90
27858;DHT22;16852;51.446;6.528;2023-06-04T02:44:43;14.80;92.80
27858;DHT22;16852;51.446;6.528;2023-06-04T02:46:44;14.80;93.90
27858;DHT22;16852;51.446;6.528;2023-06-04T02:48:45;14.80;93.30
27858;DHT22;16852;51.446;6.528;2023-06-04T02:50:46;14.80;94.30
27858;DHT22;16852;51.446;6.528;2023-06-04T02:52:46;14.70;93.90
27858;DHT22;16852;51.446;6.528;2023-06-04T02:54:47;14.70;94.20
27858;DHT22;16852;51.446;6.528;2023-06-04T02:56:47;14.80;94.20
27858;DHT22;16852;51.446;6.528;2023-06-04T02:58:50;14.70;94.20
27858;DHT22;16852;51.446;6.528;2023-06-04T03:00:55;14.70;93.90
27858;DHT22;16852;51.446;6.528;2023-06-04T03:02:55;14.70;94.30
27858;DHT22;16852;51.446;6.528;2023-06-04T03:05:01;14.70;94.20
27858;DHT22;16852;51.446;6.528;2023-06-04T03:07:03;14.70;94.10
27858;DHT22;16852;51.446;6.528;2023-06-04T03:09:04;14.60;93.90
27858;DHT22;16852;51.446;6.528;2023-06-04T03:11:05;14.60;94.30
27858;DHT22;16852;51.446;6.528;2023-06-04T03:13:05;14.60;95.10
27858;DHT22;16852;51.446;6.528;2023-06-04T03:15:06;14.60;94.60
27858;DHT22;16852;51.446;6.528;2023-06-04T03:17:07;14.60;95.20
27858;DHT22;16852;51.446;6.528;2023-06-04T03:19:10;14.60;95.70
27858;DHT22;16852;51.446;6.528;2023-06-04T03:21:12;14.50;96.00
27858;DHT22;16852;51.446;6.528;2023-06-04T03:23:13;14.50;95.20
27858;DHT22;16852;51.446;6.528;2023-06-04T03:25:14;14.50;95.10
27858;DHT22;16852;51.446;6.528;2023-06-04T03:27:14;14.50;96.40
27858;DHT22;16852;51.446;6.528;2023-06-04T03:29:15;14.50;95.80
27858;DHT22;16852;51.446;6.528;2023-06-04T03:31:15;14.40;95.20
27858;DHT22;16852;51.446;6.528;2023-06-04T03:33:16;14.40;95.30
27858;DHT22;16852;51.446;6.528;2023-06-04T03:35:17;14.30;95.30
27858;DHT22;16852;51.446;6.528;2023-06-04T03:37:17;14.20;95.40
27858;DHT22;16852;51.446;6.528;2023-06-04T03:39:18;14.10;95.50
27858;DHT22;16852;51.446;6.528;2023-06-04T03:41:18;14.10;95.90
27858;DHT22;16852;51.446;6.528;2023-06-04T03:43:20;14.00;96.20
27858;DHT22;16852;51.446;6.528;2023-06-04T03:45:20;14.10;97.20
27858;DHT22;16852;51.446;6.528;2023-06-04T03:47:21;14.10;97.00
27858;DHT22;16852;51.446;6.528;2023-06-04T03:49:22;14.10;96.80
27858;DHT22;16852;51.446;6.528;2023-06-04T03:51:22;14.10;96.80
27858;DHT22;16852;51.446;6.528;2023-06-04T03:53:23;14.10;96.70
27858;DHT22;16852;51.446;6.528;2023-06-04T03:55:23;14.10;97.90
27858;DHT22;16852;51.446;6.528;2023-06-04T03:57:24;14.10;97.70
27858;DHT22;16852;51.446;6.528;2023-06-04T03:59:25;14.20;98.20
27858;DHT22;16852;51.446;6.528;2023-06-04T04:01:25;14.20;98.20
27858;DHT22;16852;51.446;6.528;2023-06-04T04:03:26;14.20;98.00
27858;DHT22;16852;51.446;6.528;2023-06-04T04:05:31;14.20;98.60
27858;DHT22;16852;51.446;6.528;2023-06-04T04:07:32;14.20;97.80
27858;DHT22;16852;51.446;6.528;2023-06-04T04:09:34;14.10;97.70
27858;DHT22;16852;51.446;6.528;2023-06-04T04:11:34;14.10;97.50
27858;DHT22;16852;51.446;6.528;2023-06-04T04:13:35;14.10;97.70
27858;DHT22;16852;51.446;6.528;2023-06-04T04:15:36;14.10;97.80
27858;DHT22;16852;51.446;6.528;2023-06-04T04:17:36;14.10;99.00
27858;DHT22;16852;51.446;6.528;2023-06-04T04:19:37;14.10;97.90
27858;DHT22;16852;51.446;6.528;2023-06-04T04:21:37;14.10;98.30
27858;DHT22;16852;51.446;6.528;2023-06-04T04:23:39;14.10;99.30
27858;DHT22;16852;51.446;6.528;2023-06-04T04:25:43;14.10;99.00
27858;DHT22;16852;51.446;6.528;2023-06-04T04:27:47;14.10;98.60
27858;DHT22;16852;51.446;6.528;2023-06-04T04:29:48;14.10;99.10
27858;DHT22;16852;51.446;6.528;2023-06-04T04:31:53;14.20;99.20
27858;DHT22;16852;51.446;6.528;2023-06-04T04:33:55;14.20;99.40
27858;DHT22;16852;51.446;6.528;2023-06-04T04:35:56;14.10;99.20
27858;DHT22;16852;51.446;6.528;2023-06-04T04:37:59;14.20;99.40
27858;DHT22;16852;51.446;6.528;2023-06-04T04:40:04;14.20;99.60
27858;DHT22;16852;51.446;6.528;2023-06-04T04:42:04;14.20;99.30
27858;DHT22;16852;51.446;6.528;2023-06-04T04:44:06;14.20;99.90
27858;DHT22;16852;51.446;6.528;2023-06-04T04:46:06;14.30;99.90
27858;DHT22;16852;51.446;6.528;2023-06-04T04:48:07;14.30;99.90
27858;DHT22;16852;51.446;6.528;2023-06-04T04:50:08;14.30;99.90
27858;DHT22;16852;51.446;6.528;2023-06-04T04:52:09;14.30;99.90
27858;DHT22;16852;51.446;6.528;2023-06-04T04:54:09;14.30;99.90
27858;DHT22;16852;51.446;6.528;2023-06-04T04:56:10;14.40;99.90
27858;DHT22;16852;51.446;6.528;2023-06-04T04:58:10;14.40;99.90
27858;DHT22;16852;51.446;6.528;2023-06-04T05:00:11;14.40;99.90
27858;DHT22;16852;51.446;6.528;2023-06-04T05:02:12;14.40;99.90
27858;DHT22;16852;51.446;6.528;2023-06-04T05:04:13;14.40;99.90
27858;DHT22;16852;51.446;6.528;2023-06-04T05:06:13;14.40;99.90
27858;DHT22;16852;51.446;6.528;2023-06-04T05:08:14;14.50;99.90
27858;DHT22;16852;51.446;6.528;2023-06-04T05:10:14;14.50;99.90
27858;DHT22;16852;51.446;6.528;2023-06-04T05:12:15;14.50;99.90
27858;DHT22;16852;51.446;6.528;2023-06-04T05:14:16;14.60;99.90
27858;DHT22;16852;51.446;6.528;2023-06-04T05:16:17;14.60;99.90
27858;DHT22;16852;51.446;6.528;2023-06-04T05:18:20;14.60;99.90
27858;DHT22;16852;51.446;6.528;2023-06-04T05:20:22;14.50;99.90
27858;DHT22;16852;51.446;6.528;2023-06-04T05:22:23;14.60;99.90
27858;DHT22;16852;51.446;6.528;2023-06-04T05:24:26;14.60;99.90
27858;DHT22;16852;51.446;6.528;2023-06-04T05:26:26;14.50;99.90
27858;DHT22;16852;51.446;6.528;2023-06-04T05:28:28;14.50;99.90
27858;DHT22;16852;51.446;6.528;2023-06-04T05:30:29;14.60;99.90
27858;DHT22;16852;51.446;6.528;2023-06-04T05:32:30;14.60;99.90
27858;DHT22;16852;51.446;6.528;2023-06-04T05:34:32;14.50;99.90
27858;DHT22;16852;51.446;6.528;2023-06-04T05:36:33;14.40;99.90
27858;DHT22;16852;51.446;6.528;2023-06-04T05:38:33;14.50;99.90
27858;DHT22;16852;51.446;6.528;2023-06-04T05:40:36;14.60;99.90
27858;DHT22;16852;51.446;6.528;2023-06-04T05:42:38;14.50;99.90
27858;DHT22;16852;51.446;6.528;2023-06-04T05:44:40;14.60;99.90
27858;DHT22;16852;51.446;6.528;2023-06-04T05:46:40;14.60;99.90
27858;DHT22;16852;51.446;6.528;2023-06-04T05:48:41;14.70;99.90
27858;DHT22;16852;51.446;6.528;2023-06-04T05:50:42;14.90;99.90
27858;DHT22;16852;51.446;6.528;2023-06-04T05:52:42;15.20;99.90
27858;DHT22;16852;51.446;6.528;2023-06-04T05:54:43;15.50;99.60
27858;DHT22;16852;51.446;6.528;2023-06-04T05:56:44;15.80;98.50
27858;DHT22;16852;51.446;6.528;2023-06-04T05:58:51;16.20;98.00
27858;DHT22;16852;51.446;6.528;2023-06-04T06:00:52;16.50;97.80
27858;DHT22;16852;51.446;6.528;2023-06-04T06:02:53;16.90;97.20
27858;DHT22;16852;51.446;6.528;2023-06-04T06:04:53;17.40;95.70
27858;DHT22;16852;51.446;6.528;2023-06-04T06:06:54;17.80;94.90
27858;DHT22;16852;51.446;6.528;2023-06-04T06:08:55;18.20;94.30
27858;DHT22;16852;51.446;6.528;2023-06-04T06:10:56;18.50;94.20
27858;DHT22;16852;51.446;6.528;2023-06-04T06:12:56;18.80;94.10
27858;DHT22;16852;51.446;6.528;2023-06-04T06:14:57;19.20;92.40
27858;DHT22;16852;51.446;6.528;2023-06-04T06:16:58;19.50;92.30
27858;DHT22;16852;51.446;6.528;2023-06-04T06:18:59;19.50;91.20
27858;DHT22;16852;51.446;6.528;2023-06-04T06:21:00;19.70;91.60
27858;DHT22;16852;51.446;6.528;2023-06-04T06:23:07;20.10;91.00
27858;DHT22;16852;51.446;6.528;2023-06-04T06:25:08;20.40;90.50
27858;DHT22;16852;51.446;6.528;2023-06-04T06:27:10;20.60;88.60
27858;DHT22;16852;51.446;6.528;2023-06-04T06:29:10;20.90;91.10
27858;DHT22;16852;51.446;6.528;2023-06-04T06:31:11;21.20;90.40
27858;DHT22;16852;51.446;6.528;2023-06-04T06:33:12;21.40;87.90
27858;DHT22;16852;51.446;6.528;2023-06-04T06:35:12;21.60;87.20
27858;DHT22;16852;51.446;6.528;2023-06-04T06:37:13;21.60;85.30
27858;DHT22;16852;51.446;6.528;2023-06-04T06:39:14;21.70;86.00
27858;DHT22;16852;51.446;6.528;2023-06-04T06:41:14;21.80;86.20
27858;DHT22;16852;51.446;6.528;2023-06-04T06:43:15;21.70;83.60
27858;DHT22;16852;51.446;6.528;2023-06-04T06:45:18;21.30;84.00
27858;DHT22;16852;51.446;6.528;2023-06-04T06:47:19;21.20;82.40
27858;DHT22;16852;51.446;6.528;2023-06-04T06:49:19;21.10;83.20
27858;DHT22;16852;51.446;6.528;2023-06-04T06:51:20;21.30;83.70
27858;DHT22;16852;51.446;6.528;2023-06-04T06:53:21;21.40;83.00
27858;DHT22;16852;51.446;6.528;2023-06-04T06:55:21;21.20;81.80
27858;DHT22;16852;51.446;6.528;2023-06-04T06:57:22;21.10;81.30
27858;DHT22;16852;51.446;6.528;2023-06-04T06:59:23;21.20;83.00
27858;DHT22;16852;51.446;6.528;2023-06-04T07:01:24;21.30;83.30
27858;DHT22;16852;51.446;6.528;2023-06-04T07:03:25;21.10;82.30
27858;DHT22;16852;51.446;6.528;2023-06-04T07:05:25;21.30;83.00
27858;DHT22;16852;51.446;6.528;2023-06-04T07:07:26;21.10;80.90
27858;DHT22;16852;51.446;6.528;2023-06-04T07:09:27;21.10;81.30
27858;DHT22;16852;51.446;6.528;2023-06-04T07:11:27;21.30;84.10
27858;DHT22;16852;51.446;6.528;2023-06-04T07:13:28;21.40;83.30
27858;DHT22;16852;51.446;6.528;2023-06-04T07:15:29;21.50;83.80
27858;DHT22;16852;51.446;6.528;2023-06-04T07:17:29;21.70;86.20
27858;DHT22;16852;51.446;6.528;2023-06-04T07:19:30;21.80;85.90
27858;DHT22;16852;51.446;6.528;2023-06-04T07:21:30;21.90;83.50
27858;DHT22;16852;51.446;6.528;2023-06-04T07:23:31;22.00;84.70
27858;DHT22;16852;51.446;6.528;2023-06-04T07:25:32;22.00;82.50
27858;DHT22;16852;51.446;6.528;2023-06-04T07:27:33;22.20;80.90
27858;DHT22;16852;51.446;6.528;2023-06-04T07:29:34;22.30;86.20
27858;DHT22;16852;51.446;6.528;2023-06-04T07:31:35;22.30;81.50
27858;DHT22;16852;51.446;6.528;2023-06-04T07:33:35;22.40;82.70
27858;DHT22;16852;51.446;6.528;2023-06-04T07:35:43;22.60;83.60
27858;DHT22;16852;51.446;6.528;2023-06-04T07:37:43;22.40;76.40
27858;DHT22;16852;51.446;6.528;2023-06-04T07:39:45;22.50;79.30
27858;DHT22;16852;51.446;6.528;2023-06-04T07:41:46;22.60;82.00
27858;DHT22;16852;51.446;6.528;2023-06-04T07:43:46;22.70;82.80
27858;DHT22;16852;51.446;6.528;2023-06-04T07:45:47;22.80;82.20
27858;DHT22;16852;51.446;6.528;2023-06-04T07:47:48;22.90;80.50
27858;DHT22;16852;51.446;6.528;2023-06-04T07:49:48;23.00;79.60
27858;DHT22;16852;51.446;6.528;2023-06-04T07:51:49;23.00;82.00
27858;DHT22;16852;51.446;6.528;2023-06-04T07:53:49;23.10;81.30
27858;DHT22;16852;51.446;6.528;2023-06-04T07:55:50;23.10;79.90
27858;DHT22;16852;51.446;6.528;2023-06-04T07:57:51;23.10;79.00
27858;DHT22;16852;51.446;6.528;2023-06-04T07:59:52;23.30;77.10
27858;DHT22;16852;51.446;6.528;2023-06-04T08:01:52;23.10;77.50
27858;DHT22;16852;51.446;6.528;2023-06-04T08:03:53;23.20;76.30
27858;DHT22;16852;51.446;6.528;2023-06-04T08:05:54;23.10;74.70
27858;DHT22;16852;51.446;6.528;2023-06-04T08:07:54;23.10;76.00
27858;DHT22;16852;51.446;6.528;2023-06-04T08:09:55;23.00;76.10
27858;DHT22;16852;51.446;6.528;2023-06-04T08:11:56;22.90;80.60
27858;DHT22;16852;51.446;6.528;2023-06-04T08:13:57;22.80;74.90
27858;DHT22;16852;51.446;6.528;2023-06-04T08:15:57;22.90;77.10
27858;DHT22;16852;51.446;6.528;2023-06-04T08:17:58;22.90;80.00
27858;DHT22;16852;51.446;6.528;2023-06-04T08:19:59;22.80;74.00
27858;DHT22;16852;51.446;6.528;2023-06-04T08:21:59;22.80;80.10
27858;DHT22;16852;51.446;6.528;2023-06-04T08:24:00;23.00;79.90
27858;DHT22;16852;51.446;6.528;2023-06-04T08:26:01;23.00;75.70
27858;DHT22;16852;51.446;6.528;2023-06-04T08:28:02;23.10;75.00
27858;DHT22;16852;51.446;6.528;2023-06-04T08:30:04;23.10;72.80
27858;DHT22;16852;51.446;6.528;2023-06-04T08:32:05;23.10;74.10
27858;DHT22;16852;51.446;6.528;2023-06-04T08:34:06;23.00;75.00
27858;DHT22;16852;51.446;6.528;2023-06-04T08:36:07;23.10;74.90
27858;DHT22;16852;51.446;6.528;2023-06-04T08:38:07;23.20;78.30
27858;DHT22;16852;51.446;6.528;2023-06-04T08:40:09;23.30;73.80
27858;DHT22;16852;51.446;6.528;2023-06-04T08:42:18;23.10;74.50
27858;DHT22;16852;51.446;6.528;2023-06-04T08:44:22;23.20;74.10
27858;DHT22;16852;51.446;6.528;2023-06-04T08:46:23;23.40;80.50
27858;DHT22;16852;51.446;6.528;2023-06-04T08:48:24;23.50;79.60
27858;DHT22;16852;51.446;6.528;2023-06-04T08:50:26;23.60;74.80
27858;DHT22;16852;51.446;6.528;2023-06-04T08:52:27;23.40;72.50
27858;DHT22;16852;51.446;6.528;2023-06-04T08:54:29;23.40;77.60
27858;DHT22;16852;51.446;6.528;2023-06-04T08:56:30;23.60;78.00
27858;DHT22;16852;51.446;6.528;2023-06-04T08:58:33;23.70;77.30
27858;DHT22;16852;51.446;6.528;2023-06-04T09:00:33;23.80;74.10
27858;DHT22;16852;51.446;6.528;2023-06-04T09:02:37;23.60;70.20
27858;DHT22;16852;51.446;6.528;2023-06-04T09:04:39;23.50;72.20
27858;DHT22;16852;51.446;6.528;2023-06-04T09:06:41;23.60;75.40
27858;DHT22;16852;51.446;6.528;2023-06-04T09:08:43;23.50;70.30
27858;DHT22;16852;51.446;6.528;2023-06-04T09:10:46;23.60;68.70
27858;DHT22;16852;51.446;6.528;2023-06-04T09:12:51;23.50;70.20
27858;DHT22;16852;51.446;6.528;2023-06-04T09:14:52;23.40;65.50
27858;DHT22;16852;51.446;6.528;2023-06-04T09:16:53;23.60;69.80
27858;DHT22;16852;51.446;6.528;2023-06-04T09:18:56;23.60;69.00
27858;DHT22;16852;51.446;6.528;2023-06-04T09:21:08;23.50;63.00
27858;DHT22;16852;51.446;6.528;2023-06-04T09:23:12;23.40;62.80
27858;DHT22;16852;51.446;6.528;2023-06-04T09:25:25;23.60;66.60
27858;DHT22;16852;51.446;6.528;2023-06-04T09:27:26;23.80;66.10
27858;DHT22;16852;51.446;6.528;2023-06-04T09:29:28;23.90;63.60
27858;DHT22;16852;51.446;6.528;2023-06-04T09:31:28;23.90;59.80
27858;DHT22;16852;51.446;6.528;2023-06-04T09:33:45;23.90;59.70
27858;DHT22;16852;51.446;6.528;2023-06-04T09:35:56;23.90;61.70
27858;DHT22;16852;51.446;6.528;2023-06-04T09:37:57;24.10;69.90
27858;DHT22;16852;51.446;6.528;2023-06-04T09:39:57;23.90;60.00
27858;DHT22;16852;51.446;6.528;2023-06-04T09:42:00;23.80;59.70
27858;DHT22;16852;51.446;6.528;2023-06-04T09:44:02;23.70;57.00
27858;DHT22;16852;51.446;6.528;2023-06-04T09:46:14;23.70;60.30
27858;DHT22;16852;51.446;6.528;2023-06-04T09:48:22;23.70;59.00
27858;DHT22;16852;51.446;6.528;2023-06-04T09:50:30;23.80;63.90
27858;DHT22;16852;51.446;6.528;2023-06-04T09:52:33;23.90;64.10
27858;DHT22;16852;51.446;6.528;2023-06-04T09:54:39;23.90;57.10
27858;DHT22;16852;51.446;6.528;2023-06-04T09:56:42;23.70;57.60
27858;DHT22;16852;51.446;6.528;2023-06-04T09:58:43;23.70;59.40
27858;DHT22;16852;51.446;6.528;2023-06-04T10:00:45;23.70;60.70
27858;DHT22;16852;51.446;6.528;2023-06-04T10:02:46;23.60;59.70
27858;DHT22;16852;51.446;6.528;2023-06-04T10:04:55;23.50;60.60
27858;DHT22;16852;51.446;6.528;2023-06-04T10:06:57;23.50;57.00
27858;DHT22;16852;51.446;6.528;2023-06-04T10:08:59;23.50;57.50
27858;DHT22;16852;51.446;6.528;2023-06-04T10:11:04;23.50;60.10
27858;DHT22;16852;51.446;6.528;2023-06-04T10:13:17;23.40;59.50
27858;DHT22;16852;51.446;6.528;2023-06-04T10:15:18;23.50;60.60
27858;DHT22;16852;51.446;6.528;2023-06-04T10:17:22;23.70;63.10
27858;DHT22;16852;51.446;6.528;2023-06-04T10:19:22;23.70;61.30
27858;DHT22;16852;51.446;6.528;2023-06-04T10:21:23;23.70;59.80
27858;DHT22;16852;51.446;6.528;2023-06-04T10:23:26;23.80;60.80
27858;DHT22;16852;51.446;6.528;2023-06-04T10:25:28;23.70;59.90
27858;DHT22;16852;51.446;6.528;2023-06-04T10:27:30;23.60;60.10
27858;DHT22;16852;51.446;6.528;2023-06-04T10:29:32;23.80;66.20
27858;DHT22;16852;51.446;6.528;2023-06-04T10:31:33;23.80;60.00
27858;DHT22;16852;51.446;6.528;2023-06-04T10:33:33;23.90;69.00
27858;DHT22;16852;51.446;6.528;2023-06-04T10:35:34;24.10;58.00
27858;DHT22;16852;51.446;6.528;2023-06-04T10:37:35;23.90;59.20
27858;DHT22;16852;51.446;6.528;2023-06-04T10:39:36;24.00;59.40
27858;DHT22;16852;51.446;6.528;2023-06-04T10:41:37;24.10;68.00
27858;DHT22;16852;51.446;6.528;2023-06-04T10:43:37;24.40;67.30
27858;DHT22;16852;51.446;6.528;2023-06-04T10:45:39;24.40;57.60
27858;DHT22;16852;51.446;6.528;2023-06-04T10:47:40;24.50;58.30
27858;DHT22;16852;51.446;6.528;2023-06-04T10:49:41;24.30;57.80
27858;DHT22;16852;51.446;6.528;2023-06-04T10:51:41;24.30;57.80
27858;DHT22;16852;51.446;6.528;2023-06-04T10:53:44;24.30;57.80
27858;DHT22;16852;51.446;6.528;2023-06-04T10:55:46;24.20;53.50
27858;DHT22;16852;51.446;6.528;2023-06-04T10:57:53;24.00;57.30
27858;DHT22;16852;51.446;6.528;2023-06-04T10:59:55;24.10;56.70
27858;DHT22;16852;51.446;6.528;2023-06-04T11:02:05;24.00;57.10
27858;DHT22;16852;51.446;6.528;2023-06-04T11:04:06;23.90;57.00
27858;DHT22;16852;51.446;6.528;2023-06-04T11:06:15;24.00;58.10
27858;DHT22;16852;51.446;6.528;2023-06-04T11:08:27;24.00;57.80
27858;DHT22;16852;51.446;6.528;2023-06-04T11:10:34;24.00;56.20
27858;DHT22;16852;51.446;6.528;2023-06-04T11:12:48;24.10;57.60
27858;DHT22;16852;51.446;6.528;2023-06-04T11:14:57;24.20;57.00
27858;DHT22;16852;51.446;6.528;2023-06-04T11:17:12;24.30;59.20
27858;DHT22;16852;51.446;6.528;2023-06-04T11:19:13;24.30;54.10
27858;DHT22;16852;51.446;6.528;2023-06-04T11:21:13;24.30;54.90
27858;DHT22;16852;51.446;6.528;2023-06-04T11:23:15;24.20;54.20
27858;DHT22;16852;51.446;6.528;2023-06-04T11:25:17;24.30;57.80
27858;DHT22;16852;51.446;6.528;2023-06-04T11:27:17;24.10;53.40
27858;DHT22;16852;51.446;6.528;2023-06-04T11:29:18;24.20;54.30
27858;DHT22;16852;51.446;6.528;2023-06-04T11:31:19;24.20;57.40
27858;DHT22;16852;51.446;6.528;2023-06-04T11:33:19;24.20;55.00
27858;DHT22;16852;51.446;6.528;2023-06-04T11:35:20;24.20;55.40
27858;DHT22;16852;51.446;6.528;2023-06-04T11:37:21;24.20;56.20
27858;DHT22;16852;51.446;6.528;2023-06-04T11:39:22;24.10;55.10
27858;DHT22;16852;51.446;6.528;2023-06-04T11:41:23;24.20;55.70
27858;DHT22;16852;51.446;6.528;2023-06-04T11:43:24;24.20;55.80
27858;DHT22;16852;51.446;6.528;2023-06-04T11:45:26;24.30;53.70
27858;DHT22;16852;51.446;6.528;2023-06-04T11:47:29;24.40;57.30
27858;DHT22;16852;51.446;6.528;2023-06-04T11:49:30;24.50;57.50
27858;DHT22;16852;51.446;6.528;2023-06-04T11:51:31;24.70;58.00
27858;DHT22;16852;51.446;6.528;2023-06-04T11:53:33;24.80;60.60
27858;DHT22;16852;51.446;6.528;2023-06-04T11:55:34;24.90;57.10
27858;DHT22;16852;51.446;6.528;2023-06-04T11:57:34;24.60;54.90
27858;DHT22;16852;51.446;6.528;2023-06-04T11:59:36;24.50;52.70
27858;DHT22;16852;51.446;6.528;2023-06-04T12:01:40;24.40;54.20
27858;DHT22;16852;51.446;6.528;2023-06-04T12:03:42;24.50;53.60
27858;DHT22;16852;51.446;6.528;2023-06-04T12:05:43;24.60;58.70
27858;DHT22;16852;51.446;6.528;2023-06-04T12:07:43;24.80;59.80
27858;DHT22;16852;51.446;6.528;2023-06-04T12:09:44;24.80;58.70
27858;DHT22;16852;51.446;6.528;2023-06-04T12:11:45;24.90;56.50
27858;DHT22;16852;51.446;6.528;2023-06-04T12:13:45;25.00;57.60
27858;DHT22;16852;51.446;6.528;2023-06-04T12:15:53;25.10;59.70
27858;DHT22;16852;51.446;6.528;2023-06-04T12:17:54;25.10;55.20
27858;DHT22;16852;51.446;6.528;2023-06-04T12:19:55;24.50;52.00
27858;DHT22;16852;51.446;6.528;2023-06-04T12:22:07;24.50;55.40
27858;DHT22;16852;51.446;6.528;2023-06-04T12:26:08;24.70;55.90
27858;DHT22;16852;51.446;6.528;2023-06-04T12:28:20;24.90;57.80
27858;DHT22;16852;51.446;6.528;2023-06-04T12:30:20;24.90;54.90
27858;DHT22;16852;51.446;6.528;2023-06-04T12:32:22;24.70;53.10
27858;DHT22;16852;51.446;6.528;2023-06-04T12:34:22;24.20;49.80
27858;DHT22;16852;51.446;6.528;2023-06-04T12:36:23;24.30;53.70
27858;DHT22;16852;51.446;6.528;2023-06-04T12:38:23;24.40;54.00
27858;DHT22;16852;51.446;6.528;2023-06-04T12:40:24;24.20;51.70
27858;DHT22;16852;51.446;6.528;2023-06-04T12:42:25;24.00;53.00
27858;DHT22;16852;51.446;6.528;2023-06-04T12:44:25;24.10;54.40
27858;DHT22;16852;51.446;6.528;2023-06-04T12:46:26;24.20;53.90
27858;DHT22;16852;51.446;6.528;2023-06-04T12:48:27;24.20;52.70
27858;DHT22;16852;51.446;6.528;2023-06-04T12:50:28;24.30;55.20
27858;DHT22;16852;51.446;6.528;2023-06-04T12:52:28;24.30;56.30
27858;DHT22;16852;51.446;6.528;2023-06-04T12:54:29;24.40;55.30
27858;DHT22;16852;51.446;6.528;2023-06-04T12:56:30;24.50;54.80